Bordeaux, South Carolina
Current Conditions -  °F | °C
As of 3:56 PM on Thursday 23 Oct 2014 (Local Time) from KGRD Reporting Station
Clear Clear  
Wind Chill: 69°   Ceiling: Unl
Heat Index: 69°   Visibility: 10mi
Dew Point: 40°   Wind: 5mph
Humidity: 35%   Direction: NA
Pressure: 30.02"   Gusts: NA
Location:  33.9231°N, 82.2423°W
Report Text: KGRD 231956Z AUTO VRB04KT 10SM CLR 21/04 A3002 RMK AO2 SLP161 T02060044
Loading
Personal Weather Stations






























Interactive Weather Map
Tropical Storm Tracking
New forecast layout! Learn more

10-Day Weather Forecast

Advertisements
Track Severe Weather on mobile